RCF162F UNKL-RJAA
Flight info
| Callsign | RCF162F |
|---|---|
| Flight time | 5h 12m |
| Altitude | 31000 |
| Route | ATREG W176 SUKOR A817 NERKA B478 KTN A91 LASAD/K0876F330 A91 AGINO A810 TELOK/K0882F331 A345 MANLI/K0885S1010 A345 HLD B451 BISUN/K0880F330 B451 IGROD/N0480F330 B451 KADBO R211 GTC Y303 ENTAK/N0479F340 Y30 SWAMP |
| Aircraft | MD11/H-SDE1E2E3FGHIJ2J3J4J5M1RWXY/LB1D1 |
Departure
| Time | 2026-05-06 17:17 |
|---|---|
| Airport | Krasnoyarsk International Airport (UNKL) |
Arrival
| Time | 2026-05-06 22:29 |
|---|---|
| Airport | Narita International Airport (RJAA) |
| Time | Latitude | Longitude | Altitude | Speed | Heading |
|---|---|---|---|---|---|
| 2026-05-06 16:46 | 56.18359 | 92.46865 | 950 ft | 0 kts | 202° |
| 2026-05-06 17:14 | 56.18352 | 92.46860 | 950 ft | 2 kts | 202° |
| 2026-05-06 17:14 | 56.18320 | 92.46840 | 950 ft | 7 kts | 188° |
| 2026-05-06 17:14 | 56.18252 | 92.46832 | 950 ft | 12 kts | 196° |
| 2026-05-06 17:14 | 56.18166 | 92.46773 | 950 ft | 13 kts | 202° |
| 2026-05-06 17:15 | 56.18078 | 92.46705 | 950 ft | 14 kts | 203° |
| 2026-05-06 17:15 | 56.17988 | 92.46635 | 950 ft | 12 kts | 202° |
| 2026-05-06 17:15 | 56.17934 | 92.46645 | 950 ft | 7 kts | 135° |
| 2026-05-06 17:15 | 56.17918 | 92.46697 | 950 ft | 0 kts | 114° |
| 2026-05-06 17:16 | 56.17895 | 92.46790 | 950 ft | 32 kts | 112° |
| 2026-05-06 17:16 | 56.17705 | 92.47590 | 951 ft | 103 kts | 113° |
| 2026-05-06 17:17 | 56.17339 | 92.49129 | 951 ft | 162 kts | 112° |
| 2026-05-06 17:17 | 56.16842 | 92.51231 | 1061 ft | 195 kts | 112° |
| 2026-05-06 17:17 | 56.16328 | 92.53418 | 1684 ft | 190 kts | 114° |
| 2026-05-06 17:17 | 56.15817 | 92.55582 | 2323 ft | 188 kts | 114° |
| 2026-05-06 17:18 | 56.15317 | 92.57712 | 2784 ft | 190 kts | 116° |
| 2026-05-06 17:18 | 56.14790 | 92.59911 | 3107 ft | 192 kts | 117° |
| 2026-05-06 17:18 | 56.14252 | 92.62104 | 3431 ft | 194 kts | 117° |
| 2026-05-06 17:18 | 56.13703 | 92.64329 | 3752 ft | 197 kts | 117° |
| 2026-05-06 17:19 | 56.13161 | 92.66582 | 4052 ft | 201 kts | 117° |
| 2026-05-06 17:19 | 56.12396 | 92.68744 | 4195 ft | 205 kts | 145° |
| 2026-05-06 17:19 | 56.11153 | 92.69724 | 4468 ft | 198 kts | 180° |
| 2026-05-06 17:19 | 56.09836 | 92.69173 | 4740 ft | 195 kts | 216° |
| 2026-05-06 17:20 | 56.08836 | 92.67509 | 4968 ft | 201 kts | 227° |
| 2026-05-06 17:20 | 56.07798 | 92.65724 | 5178 ft | 212 kts | 223° |
| 2026-05-06 17:20 | 56.06615 | 92.64008 | 5400 ft | 229 kts | 219° |
| 2026-05-06 17:20 | 56.05260 | 92.62242 | 5564 ft | 253 kts | 217° |
| 2026-05-06 17:21 | 56.03773 | 92.60392 | 5996 ft | 268 kts | 217° |
| 2026-05-06 17:21 | 56.02208 | 92.58434 | 6651 ft | 278 kts | 218° |
| 2026-05-06 17:21 | 56.00632 | 92.56432 | 7429 ft | 283 kts | 219° |
| 2026-05-06 17:21 | 55.98899 | 92.54725 | 8278 ft | 289 kts | 202° |
| 2026-05-06 17:22 | 55.96918 | 92.54110 | 9115 ft | 298 kts | 182° |
| 2026-05-06 17:22 | 55.94887 | 92.54842 | 9881 ft | 310 kts | 160° |
| 2026-05-06 17:22 | 55.93030 | 92.56972 | 10368 ft | 333 kts | 139° |
| 2026-05-06 17:22 | 55.91616 | 92.60434 | 10583 ft | 363 kts | 118° |
| 2026-05-06 17:23 | 55.90687 | 92.64817 | 10738 ft | 391 kts | 109° |
| 2026-05-06 17:23 | 55.89903 | 92.69540 | 11234 ft | 406 kts | 109° |
| 2026-05-06 17:23 | 55.89046 | 92.74396 | 11914 ft | 415 kts | 111° |
| 2026-05-06 17:23 | 55.88070 | 92.79274 | 12655 ft | 422 kts | 113° |
| 2026-05-06 17:24 | 55.86995 | 92.84232 | 13401 ft | 429 kts | 114° |
| 2026-05-06 17:24 | 55.85891 | 92.89164 | 14157 ft | 435 kts | 114° |
| 2026-05-06 17:24 | 55.84758 | 92.94183 | 14913 ft | 440 kts | 114° |
| 2026-05-06 17:24 | 55.83630 | 92.99258 | 15681 ft | 445 kts | 113° |
| 2026-05-06 17:25 | 55.82509 | 93.04401 | 16430 ft | 449 kts | 113° |
| 2026-05-06 17:25 | 55.81388 | 93.09570 | 17137 ft | 454 kts | 113° |
| 2026-05-06 17:25 | 55.80231 | 93.14813 | 17867 ft | 458 kts | 114° |
| 2026-05-06 17:25 | 55.79039 | 93.20060 | 18537 ft | 463 kts | 114° |
| 2026-05-06 17:26 | 55.77816 | 93.25403 | 19243 ft | 467 kts | 114° |
| 2026-05-06 17:26 | 55.76617 | 93.30718 | 19927 ft | 471 kts | 113° |
| 2026-05-06 17:26 | 55.75502 | 93.36271 | 20582 ft | 476 kts | 106° |
| 2026-05-06 17:26 | 55.74902 | 93.42017 | 21226 ft | 481 kts | 94° |
| 2026-05-06 17:27 | 55.74948 | 93.47984 | 21847 ft | 484 kts | 83° |
| 2026-05-06 17:27 | 55.75435 | 93.53890 | 22487 ft | 487 kts | 78° |
| 2026-05-06 17:27 | 55.76030 | 93.59760 | 23105 ft | 491 kts | 78° |
| 2026-05-06 17:27 | 55.76609 | 93.65749 | 23742 ft | 495 kts | 80° |
| 2026-05-06 17:28 | 55.77133 | 93.71808 | 24366 ft | 498 kts | 81° |
| 2026-05-06 17:28 | 55.77613 | 93.77834 | 24898 ft | 503 kts | 81° |
| 2026-05-06 17:28 | 55.78092 | 93.84064 | 25495 ft | 506 kts | 81° |
| 2026-05-06 17:28 | 55.78563 | 93.90265 | 26061 ft | 510 kts | 81° |
| 2026-05-06 17:29 | 55.79047 | 93.96535 | 26594 ft | 514 kts | 81° |
| 2026-05-06 17:29 | 55.79546 | 94.02841 | 27141 ft | 518 kts | 80° |
| 2026-05-06 17:29 | 55.80064 | 94.09285 | 27678 ft | 522 kts | 80° |
| 2026-05-06 17:29 | 55.80589 | 94.15688 | 28236 ft | 524 kts | 80° |
| 2026-05-06 17:30 | 55.81106 | 94.22071 | 28935 ft | 524 kts | 80° |
| 2026-05-06 17:30 | 55.81406 | 94.28476 | 29590 ft | 525 kts | 88° |
| 2026-05-06 17:30 | 55.81195 | 94.34904 | 30243 ft | 525 kts | 97° |
| 2026-05-06 17:30 | 55.80441 | 94.41228 | 30779 ft | 525 kts | 106° |
| 2026-05-06 17:31 | 55.79320 | 94.47413 | 30960 ft | 522 kts | 109° |
| 2026-05-06 17:31 | 55.76864 | 94.59482 | 30930 ft | 521 kts | 109° |
| 2026-05-06 17:32 | 55.74486 | 94.71709 | 30973 ft | 523 kts | 108° |
| 2026-05-06 17:32 | 55.72257 | 94.83933 | 30972 ft | 523 kts | 108° |
| 2026-05-06 17:33 | 55.70002 | 94.96195 | 30966 ft | 522 kts | 108° |
| 2026-05-06 17:33 | 55.67762 | 95.08423 | 30962 ft | 523 kts | 107° |
| 2026-05-06 17:34 | 55.65543 | 95.20676 | 30959 ft | 523 kts | 107° |
| 2026-05-06 17:34 | 55.63329 | 95.32905 | 30952 ft | 524 kts | 107° |
| 2026-05-06 17:35 | 55.61118 | 95.45220 | 30950 ft | 525 kts | 106° |
| 2026-05-06 17:35 | 55.59302 | 95.55377 | 30963 ft | 526 kts | 106° |
| 2026-05-06 17:36 | 55.55574 | 95.76389 | 30961 ft | 525 kts | 107° |
| 2026-05-06 17:36 | 55.53394 | 95.88573 | 30967 ft | 526 kts | 108° |
| 2026-05-06 17:37 | 55.51023 | 96.00782 | 30961 ft | 526 kts | 108° |
| 2026-05-06 17:37 | 55.48648 | 96.13032 | 30974 ft | 527 kts | 109° |
| 2026-05-06 17:38 | 55.46192 | 96.25192 | 30968 ft | 527 kts | 109° |
| 2026-05-06 17:38 | 55.43748 | 96.37315 | 30980 ft | 527 kts | 108° |
| 2026-05-06 17:39 | 55.41336 | 96.49473 | 30980 ft | 527 kts | 108° |
| 2026-05-06 17:39 | 55.38920 | 96.61680 | 30987 ft | 528 kts | 107° |
| 2026-05-06 17:40 | 55.36517 | 96.73872 | 30988 ft | 527 kts | 108° |
| 2026-05-06 17:40 | 55.34144 | 96.85983 | 30992 ft | 527 kts | 108° |
| 2026-05-06 17:41 | 55.31910 | 96.97450 | 30995 ft | 527 kts | 107° |
| 2026-05-06 17:41 | 55.29591 | 97.09418 | 31002 ft | 527 kts | 107° |
| 2026-05-06 17:42 | 55.27253 | 97.21558 | 31015 ft | 527 kts | 107° |
| 2026-05-06 17:42 | 55.24908 | 97.33655 | 31020 ft | 526 kts | 108° |
| 2026-05-06 17:43 | 55.22369 | 97.45707 | 31036 ft | 527 kts | 109° |
| 2026-05-06 17:43 | 55.19812 | 97.57674 | 31039 ft | 527 kts | 108° |
| 2026-05-06 17:44 | 55.17288 | 97.69666 | 31033 ft | 526 kts | 109° |
| 2026-05-06 17:44 | 55.14790 | 97.81653 | 31035 ft | 526 kts | 109° |
| 2026-05-06 17:45 | 55.12520 | 97.92595 | 31044 ft | 525 kts | 108° |
| 2026-05-06 17:45 | 55.10081 | 98.04389 | 31039 ft | 523 kts | 108° |
| 2026-05-06 17:46 | 55.07625 | 98.16276 | 31029 ft | 521 kts | 108° |
| 2026-05-06 17:46 | 55.05185 | 98.28173 | 31034 ft | 523 kts | 107° |
| 2026-05-06 17:47 | 55.02758 | 98.40100 | 31021 ft | 524 kts | 107° |
| 2026-05-06 17:47 | 55.00339 | 98.52041 | 31019 ft | 524 kts | 107° |
| 2026-05-06 17:48 | 54.97930 | 98.63998 | 31018 ft | 524 kts | 107° |
| 2026-05-06 17:48 | 54.95418 | 98.75930 | 31018 ft | 525 kts | 109° |
| 2026-05-06 17:49 | 54.92801 | 98.87813 | 31012 ft | 526 kts | 108° |
| 2026-05-06 17:49 | 54.90500 | 98.98566 | 31019 ft | 527 kts | 107° |
| 2026-05-06 17:50 | 54.88409 | 99.10696 | 31028 ft | 525 kts | 99° |
| 2026-05-06 17:50 | 54.86928 | 99.23047 | 31031 ft | 526 kts | 98° |
| 2026-05-06 17:51 | 54.85458 | 99.34711 | 31032 ft | 526 kts | 98° |
| 2026-05-06 17:51 | 54.83821 | 99.47047 | 31033 ft | 526 kts | 98° |
| 2026-05-06 17:52 | 54.82293 | 99.58572 | 31033 ft | 526 kts | 98° |
| 2026-05-06 17:52 | 54.80671 | 99.70932 | 31031 ft | 526 kts | 99° |
| 2026-05-06 17:53 | 54.79847 | 99.77295 | 31033 ft | 526 kts | 99° |
| 2026-05-06 17:53 | 54.78972 | 99.84059 | 31038 ft | 527 kts | 98° |
| 2026-05-06 17:54 | 54.77421 | 99.96242 | 31034 ft | 527 kts | 98° |
| 2026-05-06 17:54 | 54.75846 | 100.08594 | 31033 ft | 526 kts | 98° |
| 2026-05-06 17:55 | 54.74295 | 100.20909 | 31036 ft | 526 kts | 97° |
| 2026-05-06 17:55 | 54.72751 | 100.33312 | 31041 ft | 526 kts | 97° |
| 2026-05-06 17:56 | 54.71238 | 100.45606 | 31042 ft | 526 kts | 96° |
| 2026-05-06 17:56 | 54.70011 | 100.55672 | 31041 ft | 526 kts | 96° |
| 2026-05-06 17:57 | 54.68369 | 100.67905 | 31040 ft | 528 kts | 99° |
| 2026-05-06 17:57 | 54.66535 | 100.80228 | 31036 ft | 528 kts | 99° |
| 2026-05-06 17:58 | 54.64860 | 100.91630 | 31033 ft | 527 kts | 99° |
| 2026-05-06 17:58 | 54.63130 | 101.03697 | 31032 ft | 525 kts | 98° |
| 2026-05-06 17:59 | 54.61400 | 101.15939 | 31039 ft | 526 kts | 98° |
| 2026-05-06 17:59 | 54.59678 | 101.28185 | 31035 ft | 529 kts | 98° |
| 2026-05-06 18:00 | 54.57948 | 101.40514 | 31031 ft | 529 kts | 97° |
| 2026-05-06 18:00 | 54.56243 | 101.52741 | 31037 ft | 528 kts | 97° |
| 2026-05-06 18:01 | 54.54546 | 101.65054 | 31036 ft | 528 kts | 98° |
| 2026-05-06 18:01 | 54.52856 | 101.77387 | 31038 ft | 531 kts | 97° |
| 2026-05-06 18:02 | 54.51185 | 101.89773 | 31034 ft | 531 kts | 97° |
| 2026-05-06 18:02 | 54.49628 | 102.01122 | 31034 ft | 531 kts | 98° |
| 2026-05-06 18:03 | 54.47763 | 102.13196 | 31046 ft | 531 kts | 99° |
| 2026-05-06 18:03 | 54.45843 | 102.25485 | 31048 ft | 530 kts | 99° |
| 2026-05-06 18:04 | 54.44006 | 102.37663 | 31054 ft | 530 kts | 99° |
| 2026-05-06 18:04 | 54.42160 | 102.49893 | 31049 ft | 529 kts | 98° |
| 2026-05-06 18:05 | 54.40348 | 102.62071 | 31055 ft | 527 kts | 98° |
| 2026-05-06 18:05 | 54.38546 | 102.74210 | 31054 ft | 527 kts | 99° |
| 2026-05-06 18:06 | 54.36754 | 102.86386 | 31055 ft | 527 kts | 99° |
| 2026-05-06 18:06 | 54.35049 | 102.97559 | 31061 ft | 527 kts | 100° |
| 2026-05-06 18:07 | 54.33181 | 103.09422 | 31077 ft | 527 kts | 99° |
| 2026-05-06 18:07 | 54.31330 | 103.21515 | 31075 ft | 524 kts | 99° |
| 2026-05-06 18:08 | 54.29335 | 103.33549 | 31079 ft | 523 kts | 102° |
| 2026-05-06 18:08 | 54.27142 | 103.45335 | 31080 ft | 522 kts | 103° |
| 2026-05-06 18:09 | 54.24931 | 103.57111 | 31084 ft | 520 kts | 103° |
| 2026-05-06 18:09 | 54.22767 | 103.68849 | 31088 ft | 518 kts | 104° |
| 2026-05-06 18:10 | 54.20630 | 103.80550 | 31085 ft | 516 kts | 103° |
| 2026-05-06 18:10 | 54.18506 | 103.92241 | 31093 ft | 514 kts | 104° |
| 2026-05-06 18:11 | 54.16407 | 104.03822 | 31108 ft | 512 kts | 103° |
| 2026-05-06 18:11 | 54.14321 | 104.15381 | 31108 ft | 510 kts | 103° |
| 2026-05-06 18:12 | 54.12248 | 104.26954 | 31117 ft | 510 kts | 103° |
| 2026-05-06 18:12 | 54.10189 | 104.38512 | 31123 ft | 510 kts | 103° |
| 2026-05-06 18:13 | 54.08159 | 104.49986 | 31127 ft | 510 kts | 103° |
| 2026-05-06 18:13 | 54.06122 | 104.61556 | 31123 ft | 509 kts | 103° |
| 2026-05-06 18:14 | 54.03976 | 104.73019 | 31126 ft | 508 kts | 105° |
| 2026-05-06 18:14 | 54.01827 | 104.84148 | 31125 ft | 507 kts | 105° |
| 2026-05-06 18:15 | 53.99682 | 104.95534 | 31131 ft | 506 kts | 105° |
| 2026-05-06 18:15 | 53.97474 | 105.06857 | 31125 ft | 504 kts | 106° |
| 2026-05-06 18:16 | 53.95293 | 105.18162 | 31123 ft | 504 kts | 105° |
| 2026-05-06 18:16 | 53.93135 | 105.29423 | 31127 ft | 504 kts | 105° |
| 2026-05-06 18:17 | 53.90984 | 105.40677 | 31119 ft | 503 kts | 105° |
| 2026-05-06 18:17 | 53.88788 | 105.51974 | 31123 ft | 503 kts | 106° |
| 2026-05-06 18:18 | 53.86475 | 105.63128 | 31121 ft | 503 kts | 107° |
| 2026-05-06 18:18 | 53.84159 | 105.74274 | 31125 ft | 502 kts | 107° |
| 2026-05-06 18:19 | 53.81872 | 105.85408 | 31127 ft | 501 kts | 107° |
| 2026-05-06 18:19 | 53.79602 | 105.96549 | 31132 ft | 500 kts | 107° |
| 2026-05-06 18:20 | 53.77346 | 106.07661 | 31129 ft | 499 kts | 107° |
| 2026-05-06 18:20 | 53.75116 | 106.18677 | 31133 ft | 499 kts | 107° |
| 2026-05-06 18:21 | 53.72887 | 106.29743 | 31135 ft | 498 kts | 107° |
| 2026-05-06 18:21 | 53.70675 | 106.40773 | 31140 ft | 498 kts | 106° |
| 2026-05-06 18:22 | 53.68465 | 106.51876 | 31143 ft | 497 kts | 106° |
| 2026-05-06 18:22 | 53.66283 | 106.62888 | 31154 ft | 497 kts | 106° |
| 2026-05-06 18:23 | 53.64135 | 106.73785 | 31151 ft | 496 kts | 106° |
| 2026-05-06 18:23 | 53.61868 | 106.84892 | 31157 ft | 496 kts | 108° |
| 2026-05-06 18:24 | 53.59457 | 106.95684 | 31162 ft | 496 kts | 109° |
| 2026-05-06 18:24 | 53.57034 | 107.06561 | 31165 ft | 496 kts | 108° |
| 2026-05-06 18:25 | 53.54652 | 107.17419 | 31163 ft | 496 kts | 108° |
| 2026-05-06 18:25 | 53.52280 | 107.28320 | 31162 ft | 495 kts | 107° |
| 2026-05-06 18:26 | 53.49942 | 107.39113 | 31164 ft | 495 kts | 107° |
| 2026-05-06 18:26 | 53.47603 | 107.49941 | 31166 ft | 494 kts | 107° |
| 2026-05-06 18:27 | 53.45277 | 107.60751 | 31172 ft | 493 kts | 107° |
| 2026-05-06 18:27 | 53.42961 | 107.71553 | 31174 ft | 493 kts | 107° |
| 2026-05-06 18:28 | 53.40663 | 107.82343 | 31177 ft | 493 kts | 107° |
| 2026-05-06 18:28 | 53.38368 | 107.93174 | 31178 ft | 494 kts | 107° |
| 2026-05-06 18:29 | 53.36082 | 108.04000 | 31182 ft | 493 kts | 107° |
| 2026-05-06 18:29 | 53.33776 | 108.14782 | 31194 ft | 493 kts | 108° |
| 2026-05-06 18:30 | 53.31313 | 108.25440 | 31203 ft | 493 kts | 109° |
| 2026-05-06 18:30 | 53.28777 | 108.36153 | 31212 ft | 493 kts | 109° |
| 2026-05-06 18:31 | 53.26284 | 108.46767 | 31214 ft | 493 kts | 108° |
| 2026-05-06 18:31 | 53.23813 | 108.57372 | 31206 ft | 493 kts | 108° |
| 2026-05-06 18:32 | 53.21340 | 108.68034 | 31202 ft | 493 kts | 109° |
| 2026-05-06 18:32 | 53.18877 | 108.78674 | 31201 ft | 493 kts | 109° |
| 2026-05-06 18:33 | 53.16410 | 108.89366 | 31203 ft | 493 kts | 109° |
| 2026-05-06 18:33 | 53.13962 | 109.00020 | 31202 ft | 493 kts | 108° |
| 2026-05-06 18:34 | 53.11523 | 109.10690 | 31190 ft | 493 kts | 108° |
| 2026-05-06 18:34 | 53.09111 | 109.21298 | 31195 ft | 492 kts | 108° |
| 2026-05-06 18:35 | 53.06705 | 109.31911 | 31195 ft | 492 kts | 108° |
| 2026-05-06 18:35 | 53.04295 | 109.42611 | 31191 ft | 492 kts | 108° |
| 2026-05-06 18:36 | 53.01788 | 109.53112 | 31185 ft | 492 kts | 109° |
| 2026-05-06 18:36 | 52.99206 | 109.63612 | 31172 ft | 490 kts | 109° |
| 2026-05-06 18:37 | 52.96708 | 109.74068 | 31166 ft | 490 kts | 109° |
| 2026-05-06 18:37 | 52.94164 | 109.84603 | 31154 ft | 491 kts | 109° |
| 2026-05-06 18:38 | 52.91669 | 109.95118 | 31147 ft | 491 kts | 109° |
| 2026-05-06 18:38 | 52.89074 | 110.05554 | 31157 ft | 491 kts | 110° |
| 2026-05-06 18:39 | 52.86412 | 110.15929 | 31172 ft | 491 kts | 110° |
| 2026-05-06 18:40 | 52.82446 | 110.31484 | 31167 ft | 490 kts | 110° |
| 2026-05-06 18:40 | 52.79820 | 110.41878 | 31159 ft | 490 kts | 109° |
| 2026-05-06 18:41 | 52.77212 | 110.52232 | 31155 ft | 490 kts | 109° |
| 2026-05-06 18:41 | 52.74597 | 110.62639 | 31161 ft | 491 kts | 109° |
| 2026-05-06 18:42 | 52.72871 | 110.69528 | 31151 ft | 491 kts | 110° |
| 2026-05-06 18:42 | 52.71292 | 110.75837 | 31159 ft | 491 kts | 109° |
| 2026-05-06 18:43 | 52.66821 | 110.93819 | 31142 ft | 490 kts | 109° |
| 2026-05-06 18:43 | 52.64254 | 111.04194 | 31138 ft | 489 kts | 109° |
| 2026-05-06 18:44 | 52.61698 | 111.14574 | 31129 ft | 490 kts | 109° |
| 2026-05-06 18:44 | 52.59141 | 111.24931 | 31125 ft | 490 kts | 109° |
| 2026-05-06 18:45 | 52.56440 | 111.35202 | 31123 ft | 491 kts | 110° |
| 2026-05-06 18:45 | 52.53762 | 111.45451 | 31123 ft | 491 kts | 109° |
| 2026-05-06 18:46 | 52.51109 | 111.55743 | 31120 ft | 490 kts | 109° |
| 2026-05-06 18:46 | 52.48349 | 111.65988 | 31116 ft | 489 kts | 111° |
| 2026-05-06 18:47 | 52.45592 | 111.76175 | 31114 ft | 488 kts | 110° |
| 2026-05-06 18:47 | 52.42821 | 111.86304 | 31114 ft | 489 kts | 111° |
| 2026-05-06 18:48 | 52.40029 | 111.96415 | 31110 ft | 489 kts | 110° |
| 2026-05-06 18:48 | 52.37256 | 112.06546 | 31111 ft | 489 kts | 110° |
| 2026-05-06 18:49 | 52.34494 | 112.16664 | 31109 ft | 489 kts | 110° |
| 2026-05-06 18:49 | 52.31736 | 112.26804 | 31108 ft | 489 kts | 110° |
| 2026-05-06 18:50 | 52.28983 | 112.36958 | 31106 ft | 488 kts | 109° |
| 2026-05-06 18:50 | 52.26251 | 112.47066 | 31105 ft | 487 kts | 109° |
| 2026-05-06 18:51 | 52.23519 | 112.57121 | 31105 ft | 486 kts | 110° |
| 2026-05-06 18:51 | 52.20648 | 112.67094 | 31111 ft | 488 kts | 111° |
| 2026-05-06 18:52 | 52.17755 | 112.77055 | 31110 ft | 488 kts | 111° |
| 2026-05-06 18:52 | 52.14904 | 112.87009 | 31112 ft | 487 kts | 111° |
| 2026-05-06 18:53 | 52.12051 | 112.96935 | 31116 ft | 486 kts | 110° |
| 2026-05-06 18:53 | 52.09220 | 113.06876 | 31121 ft | 485 kts | 110° |
| 2026-05-06 18:54 | 52.06379 | 113.16823 | 31122 ft | 485 kts | 110° |
| 2026-05-06 18:54 | 52.03467 | 113.26680 | 31116 ft | 486 kts | 116° |
| 2026-05-06 18:55 | 51.99298 | 113.35364 | 31135 ft | 496 kts | 133° |
| 2026-05-06 18:55 | 51.93992 | 113.42529 | 31132 ft | 499 kts | 138° |
| 2026-05-06 18:56 | 51.88583 | 113.49487 | 31120 ft | 500 kts | 137° |
| 2026-05-06 18:56 | 51.83228 | 113.56680 | 31118 ft | 500 kts | 136° |
| 2026-05-06 18:57 | 51.77903 | 113.63911 | 31120 ft | 499 kts | 136° |
| 2026-05-06 18:57 | 51.72578 | 113.71067 | 31132 ft | 499 kts | 136° |
| 2026-05-06 18:58 | 51.67292 | 113.78224 | 31138 ft | 499 kts | 136° |
| 2026-05-06 18:58 | 51.61998 | 113.85365 | 31139 ft | 499 kts | 136° |
| 2026-05-06 18:59 | 51.56665 | 113.92482 | 31137 ft | 499 kts | 137° |
| 2026-05-06 18:59 | 51.51271 | 113.99480 | 31144 ft | 499 kts | 137° |
| 2026-05-06 19:00 | 51.45918 | 114.06455 | 31145 ft | 499 kts | 137° |
| 2026-05-06 19:00 | 51.40548 | 114.13464 | 31723 ft | 499 kts | 137° |
| 2026-05-06 19:00 | 51.37863 | 114.16952 | 32194 ft | 500 kts | 137° |
| 2026-05-06 19:01 | 51.35180 | 114.20460 | 32678 ft | 499 kts | 136° |
| 2026-05-06 19:01 | 51.32513 | 114.23962 | 33069 ft | 499 kts | 137° |
| 2026-05-06 19:01 | 51.29838 | 114.27453 | 33071 ft | 497 kts | 137° |
| 2026-05-06 19:02 | 51.24493 | 114.34422 | 33109 ft | 495 kts | 136° |
| 2026-05-06 19:02 | 51.19186 | 114.41395 | 33115 ft | 498 kts | 136° |
| 2026-05-06 19:03 | 51.13837 | 114.48370 | 33100 ft | 498 kts | 135° |
| 2026-05-06 19:03 | 51.09114 | 114.56219 | 33097 ft | 489 kts | 120° |
| 2026-05-06 19:04 | 51.05650 | 114.65389 | 33102 ft | 483 kts | 114° |
| 2026-05-06 19:04 | 51.02378 | 114.74741 | 33082 ft | 484 kts | 115° |
| 2026-05-06 19:05 | 50.99017 | 114.83942 | 33060 ft | 484 kts | 115° |
| 2026-05-06 19:05 | 50.95632 | 114.93104 | 33078 ft | 485 kts | 115° |
| 2026-05-06 19:06 | 50.92229 | 115.02361 | 33078 ft | 485 kts | 115° |
| 2026-05-06 19:06 | 50.88868 | 115.11547 | 33072 ft | 486 kts | 114° |
| 2026-05-06 19:07 | 50.85500 | 115.20779 | 33062 ft | 486 kts | 114° |
| 2026-05-06 19:07 | 50.82118 | 115.30072 | 33062 ft | 486 kts | 114° |
| 2026-05-06 19:08 | 50.78787 | 115.39249 | 33059 ft | 486 kts | 114° |
| 2026-05-06 19:08 | 50.75449 | 115.48483 | 33062 ft | 486 kts | 114° |
| 2026-05-06 19:09 | 50.72102 | 115.57768 | 33056 ft | 486 kts | 114° |
| 2026-05-06 19:09 | 50.68776 | 115.67011 | 33070 ft | 487 kts | 115° |
| 2026-05-06 19:10 | 50.65454 | 115.76263 | 33060 ft | 487 kts | 114° |
| 2026-05-06 19:10 | 50.62005 | 115.85506 | 33062 ft | 488 kts | 116° |
| 2026-05-06 19:11 | 50.58560 | 115.94675 | 33049 ft | 488 kts | 115° |
| 2026-05-06 19:11 | 50.55085 | 116.03770 | 33053 ft | 489 kts | 117° |
| 2026-05-06 19:12 | 50.51434 | 116.12725 | 33055 ft | 489 kts | 117° |
| 2026-05-06 19:12 | 50.47789 | 116.21732 | 33055 ft | 490 kts | 117° |
| 2026-05-06 19:13 | 50.44153 | 116.30720 | 33046 ft | 490 kts | 117° |
| 2026-05-06 19:13 | 50.40502 | 116.39697 | 33037 ft | 490 kts | 119° |
| 2026-05-06 19:14 | 50.36089 | 116.47945 | 33052 ft | 499 kts | 133° |
| 2026-05-06 19:14 | 50.30707 | 116.54813 | 33044 ft | 503 kts | 138° |
| 2026-05-06 19:15 | 50.25164 | 116.61460 | 33052 ft | 503 kts | 137° |
| 2026-05-06 19:15 | 50.19691 | 116.68238 | 33041 ft | 502 kts | 138° |
| 2026-05-06 19:16 | 50.14270 | 116.75023 | 33042 ft | 502 kts | 137° |
| 2026-05-06 19:16 | 50.08778 | 116.81749 | 33047 ft | 503 kts | 139° |
| 2026-05-06 19:17 | 50.03245 | 116.88386 | 33048 ft | 503 kts | 139° |
| 2026-05-06 19:17 | 49.97730 | 116.95067 | 33049 ft | 503 kts | 139° |
| 2026-05-06 19:18 | 49.92248 | 117.01648 | 33047 ft | 503 kts | 139° |
| 2026-05-06 19:18 | 49.86724 | 117.08350 | 33045 ft | 502 kts | 139° |
| 2026-05-06 19:19 | 49.81235 | 117.14951 | 33048 ft | 503 kts | 139° |
| 2026-05-06 19:19 | 49.75706 | 117.21654 | 33044 ft | 503 kts | 138° |
| 2026-05-06 19:20 | 49.70226 | 117.28270 | 33041 ft | 504 kts | 139° |
| 2026-05-06 19:20 | 49.64772 | 117.35007 | 33040 ft | 502 kts | 135° |
| 2026-05-06 19:21 | 49.59768 | 117.42453 | 33045 ft | 498 kts | 129° |
| 2026-05-06 19:21 | 49.55327 | 117.50577 | 33045 ft | 494 kts | 121° |
| 2026-05-06 19:22 | 49.51376 | 117.59145 | 33034 ft | 495 kts | 121° |
| 2026-05-06 19:22 | 49.47298 | 117.67648 | 33120 ft | 496 kts | 123° |
| 2026-05-06 19:23 | 49.43150 | 117.76097 | 33149 ft | 498 kts | 124° |
| 2026-05-06 19:23 | 49.38985 | 117.84596 | 33166 ft | 497 kts | 123° |
| 2026-05-06 19:24 | 49.34874 | 117.93082 | 33161 ft | 497 kts | 123° |
| 2026-05-06 19:24 | 49.30752 | 118.01567 | 33165 ft | 497 kts | 123° |
| 2026-05-06 19:25 | 49.27275 | 118.10520 | 33171 ft | 488 kts | 107° |
| 2026-05-06 19:25 | 49.26319 | 118.15466 | 33155 ft | 482 kts | 96° |
| 2026-05-06 19:25 | 49.25936 | 118.20488 | 33164 ft | 477 kts | 88° |
| 2026-05-06 19:26 | 49.25864 | 118.30598 | 33148 ft | 478 kts | 87° |
| 2026-05-06 19:26 | 49.25597 | 118.40792 | 33143 ft | 481 kts | 89° |
| 2026-05-06 19:27 | 49.25176 | 118.50943 | 33140 ft | 482 kts | 90° |
| 2026-05-06 19:27 | 49.24745 | 118.61207 | 33137 ft | 482 kts | 89° |
| 2026-05-06 19:28 | 49.24347 | 118.71401 | 33146 ft | 482 kts | 90° |
| 2026-05-06 19:28 | 49.23967 | 118.81609 | 33143 ft | 483 kts | 90° |
| 2026-05-06 19:29 | 49.23592 | 118.91826 | 33152 ft | 483 kts | 90° |
| 2026-05-06 19:29 | 49.23226 | 119.02028 | 33146 ft | 483 kts | 90° |
| 2026-05-06 19:30 | 49.22867 | 119.12332 | 33160 ft | 484 kts | 90° |
| 2026-05-06 19:30 | 49.22521 | 119.22530 | 33160 ft | 485 kts | 90° |
| 2026-05-06 19:31 | 49.22191 | 119.32795 | 33166 ft | 485 kts | 90° |
| 2026-05-06 19:31 | 49.21697 | 119.48225 | 33171 ft | 484 kts | 90° |
| 2026-05-06 19:32 | 49.21243 | 119.58433 | 33160 ft | 485 kts | 91° |
| 2026-05-06 19:32 | 49.20787 | 119.68719 | 33177 ft | 485 kts | 91° |
| 2026-05-06 19:33 | 49.20151 | 119.78970 | 33161 ft | 488 kts | 100° |
| 2026-05-06 19:33 | 49.17675 | 119.88615 | 33177 ft | 493 kts | 120° |
| 2026-05-06 19:34 | 49.13719 | 119.97156 | 33151 ft | 496 kts | 126° |
| 2026-05-06 19:34 | 49.09576 | 120.05621 | 33139 ft | 497 kts | 124° |
| 2026-05-06 19:35 | 49.05603 | 120.14166 | 33134 ft | 496 kts | 123° |
| 2026-05-06 19:35 | 49.01665 | 120.22722 | 33134 ft | 496 kts | 123° |
| 2026-05-06 19:36 | 48.97681 | 120.31324 | 33129 ft | 496 kts | 123° |
| 2026-05-06 19:36 | 48.93754 | 120.39858 | 33129 ft | 496 kts | 123° |
| 2026-05-06 19:37 | 48.89810 | 120.48434 | 33122 ft | 496 kts | 123° |
| 2026-05-06 19:37 | 48.86534 | 120.55566 | 33114 ft | 497 kts | 123° |
| 2026-05-06 19:38 | 48.81921 | 120.65636 | 33117 ft | 499 kts | 124° |
| 2026-05-06 19:38 | 48.77960 | 120.74292 | 33109 ft | 500 kts | 124° |
| 2026-05-06 19:39 | 48.73999 | 120.82973 | 33103 ft | 500 kts | 124° |
| 2026-05-06 19:39 | 48.70066 | 120.91592 | 33108 ft | 500 kts | 124° |
| 2026-05-06 19:40 | 48.66070 | 121.00133 | 33101 ft | 500 kts | 126° |
| 2026-05-06 19:40 | 48.61937 | 121.08617 | 33093 ft | 499 kts | 126° |
| 2026-05-06 19:41 | 48.57854 | 121.17059 | 33091 ft | 501 kts | 126° |
| 2026-05-06 19:41 | 48.53780 | 121.25562 | 33087 ft | 502 kts | 125° |
| 2026-05-06 19:42 | 48.49715 | 121.34040 | 33079 ft | 503 kts | 125° |
| 2026-05-06 19:42 | 48.45625 | 121.42584 | 33082 ft | 503 kts | 125° |
| 2026-05-06 19:43 | 48.41569 | 121.51083 | 33084 ft | 502 kts | 125° |
| 2026-05-06 19:43 | 48.37517 | 121.59575 | 33094 ft | 502 kts | 125° |
| 2026-05-06 19:44 | 48.33458 | 121.68107 | 33096 ft | 502 kts | 126° |
| 2026-05-06 19:44 | 48.29378 | 121.76686 | 33109 ft | 503 kts | 126° |
| 2026-05-06 19:45 | 48.25328 | 121.85221 | 33110 ft | 504 kts | 126° |
| 2026-05-06 19:45 | 48.21293 | 121.93742 | 33109 ft | 504 kts | 126° |
| 2026-05-06 19:46 | 48.17156 | 122.02234 | 33117 ft | 504 kts | 128° |
| 2026-05-06 19:46 | 48.12964 | 122.10590 | 33122 ft | 504 kts | 128° |
| 2026-05-06 19:47 | 48.08804 | 122.18930 | 33123 ft | 503 kts | 127° |
| 2026-05-06 19:47 | 48.04649 | 122.27331 | 33127 ft | 503 kts | 128° |
| 2026-05-06 19:48 | 48.00510 | 122.35681 | 33129 ft | 504 kts | 127° |
| 2026-05-06 19:48 | 47.96341 | 122.44138 | 33127 ft | 505 kts | 128° |
| 2026-05-06 19:49 | 47.92186 | 122.52551 | 33116 ft | 505 kts | 128° |
| 2026-05-06 19:49 | 47.88063 | 122.60930 | 33124 ft | 504 kts | 127° |
| 2026-05-06 19:50 | 47.83919 | 122.69357 | 33123 ft | 505 kts | 128° |
| 2026-05-06 19:50 | 47.79769 | 122.77813 | 33119 ft | 506 kts | 128° |
| 2026-05-06 19:51 | 47.75673 | 122.86243 | 33118 ft | 506 kts | 128° |
| 2026-05-06 19:51 | 47.71556 | 122.94691 | 33114 ft | 506 kts | 128° |
| 2026-05-06 19:52 | 47.67441 | 123.03133 | 33104 ft | 506 kts | 128° |
| 2026-05-06 19:52 | 47.63328 | 123.11581 | 33097 ft | 507 kts | 128° |
| 2026-05-06 19:53 | 47.59223 | 123.20029 | 33088 ft | 506 kts | 128° |
| 2026-05-06 19:53 | 47.55129 | 123.28472 | 33078 ft | 507 kts | 128° |
| 2026-05-06 19:54 | 47.51039 | 123.36917 | 33085 ft | 508 kts | 128° |
| 2026-05-06 19:54 | 47.46950 | 123.45396 | 33078 ft | 509 kts | 128° |
| 2026-05-06 19:55 | 47.42836 | 123.53915 | 33075 ft | 509 kts | 128° |
| 2026-05-06 19:55 | 47.38738 | 123.62440 | 33073 ft | 510 kts | 128° |
| 2026-05-06 19:56 | 47.34680 | 123.70876 | 33064 ft | 510 kts | 129° |
| 2026-05-06 19:56 | 47.30561 | 123.79457 | 33059 ft | 510 kts | 129° |
| 2026-05-06 19:57 | 47.26376 | 123.87870 | 33055 ft | 509 kts | 130° |
| 2026-05-06 19:57 | 47.21898 | 123.95869 | 33054 ft | 505 kts | 137° |
| 2026-05-06 19:58 | 47.16993 | 124.03138 | 33054 ft | 504 kts | 140° |
| 2026-05-06 19:58 | 47.11988 | 124.10310 | 33056 ft | 505 kts | 140° |
| 2026-05-06 19:59 | 47.07001 | 124.17630 | 33059 ft | 506 kts | 139° |
| 2026-05-06 19:59 | 47.02047 | 124.24868 | 33067 ft | 505 kts | 140° |
| 2026-05-06 20:00 | 46.97103 | 124.32117 | 33068 ft | 505 kts | 139° |
| 2026-05-06 20:00 | 46.92170 | 124.39348 | 33063 ft | 505 kts | 140° |
| 2026-05-06 20:01 | 46.87188 | 124.46651 | 33057 ft | 506 kts | 139° |
| 2026-05-06 20:01 | 46.82252 | 124.53915 | 33064 ft | 505 kts | 140° |
| 2026-05-06 20:02 | 46.77321 | 124.61145 | 33067 ft | 505 kts | 140° |
| 2026-05-06 20:02 | 46.72385 | 124.68437 | 33072 ft | 504 kts | 141° |
| 2026-05-06 20:03 | 46.67458 | 124.75661 | 33073 ft | 504 kts | 141° |
| 2026-05-06 20:03 | 46.62566 | 124.82909 | 33075 ft | 504 kts | 141° |
| 2026-05-06 20:04 | 46.57581 | 124.90111 | 33073 ft | 503 kts | 142° |
| 2026-05-06 20:04 | 46.52588 | 124.97158 | 33080 ft | 503 kts | 142° |
| 2026-05-06 20:05 | 46.47635 | 125.04260 | 33085 ft | 503 kts | 142° |
| 2026-05-06 20:05 | 46.42632 | 125.11384 | 33081 ft | 502 kts | 142° |
| 2026-05-06 20:06 | 46.37695 | 125.18465 | 33082 ft | 502 kts | 142° |
| 2026-05-06 20:06 | 46.32745 | 125.25540 | 33072 ft | 502 kts | 142° |
| 2026-05-06 20:07 | 46.27804 | 125.32626 | 33073 ft | 503 kts | 142° |
| 2026-05-06 20:07 | 46.22803 | 125.39691 | 33091 ft | 502 kts | 143° |
| 2026-05-06 20:08 | 46.17807 | 125.46693 | 33080 ft | 503 kts | 143° |
| 2026-05-06 20:08 | 46.12859 | 125.53765 | 33068 ft | 503 kts | 143° |
| 2026-05-06 20:09 | 46.07891 | 125.60911 | 33076 ft | 503 kts | 143° |
| 2026-05-06 20:09 | 46.02949 | 125.68002 | 33064 ft | 504 kts | 144° |
| 2026-05-06 20:10 | 45.97998 | 125.75112 | 33052 ft | 505 kts | 144° |
| 2026-05-06 20:10 | 45.93053 | 125.82236 | 33043 ft | 504 kts | 144° |
| 2026-05-06 20:11 | 45.88100 | 125.89369 | 33050 ft | 506 kts | 144° |
| 2026-05-06 20:11 | 45.83139 | 125.96529 | 33053 ft | 506 kts | 144° |
| 2026-05-06 20:12 | 45.78196 | 126.03665 | 33031 ft | 507 kts | 144° |
| 2026-05-06 20:12 | 45.73256 | 126.10805 | 33034 ft | 505 kts | 144° |
| 2026-05-06 20:13 | 45.68314 | 126.17938 | 33053 ft | 506 kts | 144° |
| 2026-05-06 20:13 | 45.63345 | 126.25080 | 33042 ft | 506 kts | 145° |
| 2026-05-06 20:14 | 45.58326 | 126.32092 | 33042 ft | 507 kts | 145° |
| 2026-05-06 20:14 | 45.53450 | 126.39339 | 33045 ft | 509 kts | 143° |
| 2026-05-06 20:15 | 45.48648 | 126.46765 | 33057 ft | 511 kts | 143° |
| 2026-05-06 20:15 | 45.43850 | 126.54192 | 33054 ft | 513 kts | 143° |
| 2026-05-06 20:16 | 45.39029 | 126.61645 | 33055 ft | 513 kts | 143° |
| 2026-05-06 20:16 | 45.34218 | 126.69079 | 33037 ft | 513 kts | 143° |
| 2026-05-06 20:17 | 45.29403 | 126.76536 | 33038 ft | 510 kts | 144° |
| 2026-05-06 20:17 | 45.24614 | 126.83961 | 33037 ft | 512 kts | 144° |
| 2026-05-06 20:18 | 45.19826 | 126.91406 | 33040 ft | 513 kts | 144° |
| 2026-05-06 20:18 | 45.15014 | 126.98894 | 33043 ft | 513 kts | 144° |
| 2026-05-06 20:19 | 45.10239 | 127.06332 | 33043 ft | 512 kts | 144° |
| 2026-05-06 20:19 | 45.05462 | 127.13776 | 33053 ft | 512 kts | 144° |
| 2026-05-06 20:20 | 45.00650 | 127.21141 | 33053 ft | 507 kts | 147° |
| 2026-05-06 20:20 | 44.95696 | 127.28197 | 33055 ft | 510 kts | 146° |
| 2026-05-06 20:21 | 44.90833 | 127.35532 | 33045 ft | 512 kts | 144° |
| 2026-05-06 20:21 | 44.86068 | 127.42874 | 33068 ft | 510 kts | 144° |
| 2026-05-06 20:22 | 44.81234 | 127.50287 | 33074 ft | 512 kts | 144° |
| 2026-05-06 20:22 | 44.76420 | 127.57681 | 33061 ft | 516 kts | 144° |
| 2026-05-06 20:23 | 44.71607 | 127.65116 | 33048 ft | 514 kts | 145° |
| 2026-05-06 20:23 | 44.66789 | 127.72536 | 33049 ft | 513 kts | 146° |
| 2026-05-06 20:24 | 44.61996 | 127.79948 | 33057 ft | 516 kts | 145° |
| 2026-05-06 20:24 | 44.57179 | 127.87397 | 33051 ft | 515 kts | 146° |
| 2026-05-06 20:25 | 44.52416 | 127.94759 | 33063 ft | 514 kts | 146° |
| 2026-05-06 20:25 | 44.47628 | 128.02188 | 33075 ft | 515 kts | 146° |
| 2026-05-06 20:26 | 44.42820 | 128.09633 | 33049 ft | 514 kts | 146° |
| 2026-05-06 20:26 | 44.37973 | 128.16907 | 33065 ft | 512 kts | 147° |
| 2026-05-06 20:27 | 44.33104 | 128.24173 | 33048 ft | 514 kts | 146° |
| 2026-05-06 20:27 | 44.28260 | 128.31491 | 33064 ft | 517 kts | 146° |
| 2026-05-06 20:28 | 44.23379 | 128.38820 | 33068 ft | 517 kts | 146° |
| 2026-05-06 20:28 | 44.18515 | 128.46182 | 33058 ft | 517 kts | 146° |
| 2026-05-06 20:29 | 44.13613 | 128.53540 | 33060 ft | 521 kts | 145° |
| 2026-05-06 20:29 | 44.08605 | 128.60716 | 33071 ft | 512 kts | 149° |
| 2026-05-06 20:30 | 44.01085 | 128.71394 | 33075 ft | 520 kts | 146° |
| 2026-05-06 20:31 | 43.96206 | 128.78813 | 33061 ft | 519 kts | 146° |
| 2026-05-06 20:31 | 43.91289 | 128.86209 | 33046 ft | 521 kts | 146° |
| 2026-05-06 20:32 | 43.86382 | 128.93625 | 33050 ft | 523 kts | 145° |
| 2026-05-06 20:32 | 43.81498 | 129.01033 | 33054 ft | 523 kts | 146° |
| 2026-05-06 20:33 | 43.76604 | 129.08414 | 33048 ft | 519 kts | 145° |
| 2026-05-06 20:33 | 43.71707 | 129.15672 | 33028 ft | 515 kts | 148° |
| 2026-05-06 20:34 | 43.66585 | 129.22690 | 33015 ft | 519 kts | 147° |
| 2026-05-06 20:34 | 43.61628 | 129.29984 | 33001 ft | 524 kts | 144° |
| 2026-05-06 20:35 | 43.56737 | 129.37364 | 33012 ft | 525 kts | 144° |
| 2026-05-06 20:35 | 43.51770 | 129.44771 | 33012 ft | 526 kts | 144° |
| 2026-05-06 20:36 | 43.46874 | 129.52147 | 33019 ft | 525 kts | 144° |
| 2026-05-06 20:36 | 43.41915 | 129.59557 | 33025 ft | 528 kts | 144° |
| 2026-05-06 20:37 | 43.36967 | 129.67040 | 33009 ft | 529 kts | 144° |
| 2026-05-06 20:37 | 43.32092 | 129.74558 | 32987 ft | 536 kts | 138° |
| 2026-05-06 20:37 | 43.30024 | 129.78926 | 33029 ft | 551 kts | 128° |
| 2026-05-06 20:38 | 43.28451 | 129.83685 | 33017 ft | 564 kts | 118° |
| 2026-05-06 20:38 | 43.27377 | 129.88890 | 33030 ft | 575 kts | 107° |
| 2026-05-06 20:38 | 43.26882 | 129.94403 | 33046 ft | 585 kts | 96° |
| 2026-05-06 20:39 | 43.27446 | 130.05543 | 33016 ft | 592 kts | 86° |
| 2026-05-06 20:39 | 43.27776 | 130.16745 | 32995 ft | 586 kts | 96° |
| 2026-05-06 20:40 | 43.27257 | 130.27856 | 32983 ft | 584 kts | 99° |
| 2026-05-06 20:40 | 43.26677 | 130.38940 | 32985 ft | 584 kts | 97° |
| 2026-05-06 20:41 | 43.26227 | 130.50001 | 32971 ft | 583 kts | 97° |
| 2026-05-06 20:41 | 43.25779 | 130.61075 | 32990 ft | 582 kts | 97° |
| 2026-05-06 20:42 | 43.25324 | 130.72128 | 32972 ft | 582 kts | 97° |
| 2026-05-06 20:42 | 43.24907 | 130.83203 | 32971 ft | 581 kts | 97° |
| 2026-05-06 20:43 | 43.24459 | 130.94267 | 32972 ft | 580 kts | 97° |
| 2026-05-06 20:43 | 43.24060 | 131.05255 | 32980 ft | 581 kts | 97° |
| 2026-05-06 20:44 | 43.23505 | 131.16266 | 32987 ft | 579 kts | 98° |
| 2026-05-06 20:44 | 43.22850 | 131.27217 | 32895 ft | 577 kts | 99° |
| 2026-05-06 20:45 | 43.21994 | 131.38127 | 32878 ft | 576 kts | 99° |
| 2026-05-06 20:45 | 43.21240 | 131.49008 | 32860 ft | 577 kts | 97° |
| 2026-05-06 20:46 | 43.20685 | 131.59959 | 32862 ft | 577 kts | 97° |
| 2026-05-06 20:46 | 43.20136 | 131.70915 | 32841 ft | 576 kts | 97° |
| 2026-05-06 20:47 | 43.19599 | 131.81867 | 32840 ft | 576 kts | 97° |
| 2026-05-06 20:47 | 43.19065 | 131.92784 | 32828 ft | 575 kts | 98° |
| 2026-05-06 20:48 | 43.18330 | 132.03580 | 32843 ft | 574 kts | 99° |
| 2026-05-06 20:48 | 43.17560 | 132.14441 | 32839 ft | 572 kts | 98° |
| 2026-05-06 20:49 | 43.16875 | 132.25269 | 32836 ft | 572 kts | 98° |
| 2026-05-06 20:49 | 43.16165 | 132.36101 | 32831 ft | 571 kts | 98° |
| 2026-05-06 20:50 | 43.15496 | 132.46951 | 32816 ft | 571 kts | 97° |
| 2026-05-06 20:50 | 43.14679 | 132.57732 | 32822 ft | 569 kts | 100° |
| 2026-05-06 20:51 | 43.13766 | 132.68463 | 32810 ft | 569 kts | 101° |
| 2026-05-06 20:51 | 43.12913 | 132.79173 | 32799 ft | 569 kts | 100° |
| 2026-05-06 20:52 | 43.12088 | 132.89900 | 32795 ft | 569 kts | 100° |
| 2026-05-06 20:52 | 43.11259 | 133.00635 | 32795 ft | 568 kts | 100° |
| 2026-05-06 20:53 | 43.10451 | 133.11324 | 32810 ft | 567 kts | 99° |
| 2026-05-06 20:53 | 43.09650 | 133.21992 | 32819 ft | 567 kts | 99° |
| 2026-05-06 20:54 | 43.08867 | 133.32710 | 32819 ft | 568 kts | 99° |
| 2026-05-06 20:54 | 43.08079 | 133.43405 | 32820 ft | 566 kts | 98° |
| 2026-05-06 20:55 | 43.07320 | 133.54135 | 32830 ft | 566 kts | 99° |
| 2026-05-06 20:55 | 43.06525 | 133.64815 | 32823 ft | 565 kts | 100° |
| 2026-05-06 20:56 | 43.05574 | 133.75436 | 32815 ft | 563 kts | 102° |
| 2026-05-06 20:56 | 43.04612 | 133.86024 | 32829 ft | 562 kts | 101° |
| 2026-05-06 20:57 | 43.03711 | 133.96549 | 32842 ft | 562 kts | 101° |
| 2026-05-06 20:57 | 43.02804 | 134.07129 | 32835 ft | 561 kts | 101° |
| 2026-05-06 20:58 | 43.01913 | 134.17665 | 32834 ft | 560 kts | 100° |
| 2026-05-06 20:58 | 43.01037 | 134.28169 | 32827 ft | 560 kts | 100° |
| 2026-05-06 20:59 | 43.00168 | 134.38719 | 32829 ft | 560 kts | 99° |
| 2026-05-06 20:59 | 42.99300 | 134.49292 | 32830 ft | 559 kts | 99° |
| 2026-05-06 21:00 | 42.97996 | 134.59576 | 32829 ft | 549 kts | 113° |
| 2026-05-06 21:00 | 42.94686 | 134.68742 | 32829 ft | 529 kts | 134° |
| 2026-05-06 21:00 | 42.92360 | 134.72551 | 32828 ft | 518 kts | 143° |
| 2026-05-06 21:01 | 42.89793 | 134.75989 | 32815 ft | 515 kts | 144° |
| 2026-05-06 21:01 | 42.84790 | 134.83017 | 32795 ft | 522 kts | 139° |
| 2026-05-06 21:02 | 42.80148 | 134.90643 | 32790 ft | 526 kts | 136° |
| 2026-05-06 21:02 | 42.75610 | 134.98377 | 32798 ft | 526 kts | 136° |
| 2026-05-06 21:03 | 42.71001 | 135.06102 | 32801 ft | 526 kts | 137° |
| 2026-05-06 21:03 | 42.66398 | 135.13829 | 32796 ft | 527 kts | 136° |
| 2026-05-06 21:04 | 42.61778 | 135.21428 | 32797 ft | 525 kts | 137° |
| 2026-05-06 21:04 | 42.57139 | 135.29065 | 32798 ft | 526 kts | 136° |
| 2026-05-06 21:05 | 42.52560 | 135.36835 | 32799 ft | 526 kts | 136° |
| 2026-05-06 21:05 | 42.48000 | 135.44485 | 32794 ft | 525 kts | 136° |
| 2026-05-06 21:06 | 42.43265 | 135.52034 | 32801 ft | 524 kts | 139° |
| 2026-05-06 21:06 | 42.38505 | 135.59416 | 32796 ft | 525 kts | 137° |
| 2026-05-06 21:07 | 42.33818 | 135.67000 | 32782 ft | 526 kts | 137° |
| 2026-05-06 21:07 | 42.29114 | 135.74577 | 32765 ft | 523 kts | 139° |
| 2026-05-06 21:08 | 42.24349 | 135.81926 | 32769 ft | 523 kts | 139° |
| 2026-05-06 21:08 | 42.19529 | 135.89290 | 32774 ft | 524 kts | 139° |
| 2026-05-06 21:09 | 42.14823 | 135.96761 | 32777 ft | 527 kts | 137° |
| 2026-05-06 21:09 | 42.10175 | 136.04382 | 32783 ft | 528 kts | 136° |
| 2026-05-06 21:10 | 42.05488 | 136.12007 | 32790 ft | 528 kts | 137° |
| 2026-05-06 21:10 | 42.00843 | 136.19565 | 32785 ft | 527 kts | 137° |
| 2026-05-06 21:11 | 41.96180 | 136.27173 | 32790 ft | 527 kts | 137° |
| 2026-05-06 21:11 | 41.91541 | 136.34763 | 32791 ft | 528 kts | 136° |
| 2026-05-06 21:12 | 41.86912 | 136.42349 | 32798 ft | 529 kts | 136° |
| 2026-05-06 21:12 | 41.82265 | 136.49968 | 32802 ft | 526 kts | 136° |
| 2026-05-06 21:13 | 41.77645 | 136.57536 | 32817 ft | 526 kts | 136° |
| 2026-05-06 21:13 | 41.73041 | 136.65131 | 32813 ft | 527 kts | 137° |
| 2026-05-06 21:14 | 41.68402 | 136.72726 | 32803 ft | 526 kts | 137° |
| 2026-05-06 21:14 | 41.65932 | 136.76250 | 32782 ft | 515 kts | 147° |
| 2026-05-06 21:14 | 41.63130 | 136.79115 | 32820 ft | 502 kts | 157° |
| 2026-05-06 21:14 | 41.60126 | 136.81226 | 32827 ft | 488 kts | 167° |
| 2026-05-06 21:15 | 41.56950 | 136.82636 | 32828 ft | 476 kts | 176° |
| 2026-05-06 21:15 | 41.50494 | 136.84511 | 32822 ft | 477 kts | 176° |
| 2026-05-06 21:16 | 41.44025 | 136.86816 | 32805 ft | 481 kts | 172° |
| 2026-05-06 21:16 | 41.37649 | 136.89435 | 32812 ft | 480 kts | 172° |
| 2026-05-06 21:17 | 41.31276 | 136.92011 | 32823 ft | 480 kts | 172° |
| 2026-05-06 21:17 | 41.24839 | 136.94592 | 32821 ft | 482 kts | 172° |
| 2026-05-06 21:18 | 41.18433 | 136.97201 | 32840 ft | 483 kts | 172° |
| 2026-05-06 21:18 | 41.11997 | 136.99780 | 32829 ft | 484 kts | 172° |
| 2026-05-06 21:19 | 41.05565 | 137.02406 | 32837 ft | 485 kts | 172° |
| 2026-05-06 21:19 | 40.99118 | 137.04993 | 32837 ft | 485 kts | 172° |
| 2026-05-06 21:20 | 40.92665 | 137.07617 | 32844 ft | 486 kts | 172° |
| 2026-05-06 21:20 | 40.86199 | 137.10222 | 32848 ft | 485 kts | 172° |
| 2026-05-06 21:21 | 40.79770 | 137.12826 | 32863 ft | 485 kts | 171° |
| 2026-05-06 21:21 | 40.73313 | 137.15392 | 32869 ft | 485 kts | 172° |
| 2026-05-06 21:22 | 40.66832 | 137.17918 | 32865 ft | 486 kts | 172° |
| 2026-05-06 21:22 | 40.60373 | 137.20485 | 32859 ft | 487 kts | 172° |
| 2026-05-06 21:23 | 40.53876 | 137.23024 | 32853 ft | 487 kts | 172° |
| 2026-05-06 21:23 | 40.47389 | 137.25603 | 32854 ft | 487 kts | 172° |
| 2026-05-06 21:24 | 40.40889 | 137.28145 | 32856 ft | 488 kts | 172° |
| 2026-05-06 21:24 | 40.34416 | 137.30718 | 32861 ft | 488 kts | 171° |
| 2026-05-06 21:25 | 40.27902 | 137.33270 | 32874 ft | 489 kts | 172° |
| 2026-05-06 21:25 | 40.21385 | 137.35852 | 32889 ft | 490 kts | 171° |
| 2026-05-06 21:26 | 40.14876 | 137.38411 | 32885 ft | 489 kts | 172° |
| 2026-05-06 21:26 | 40.08369 | 137.40982 | 32894 ft | 490 kts | 171° |
| 2026-05-06 21:27 | 40.01891 | 137.43539 | 32883 ft | 489 kts | 172° |
| 2026-05-06 21:27 | 39.95349 | 137.46004 | 32893 ft | 487 kts | 173° |
| 2026-05-06 21:28 | 39.88849 | 137.48456 | 32905 ft | 489 kts | 171° |
| 2026-05-06 21:28 | 39.82326 | 137.51092 | 32906 ft | 490 kts | 171° |
| 2026-05-06 21:29 | 39.75822 | 137.53691 | 32909 ft | 489 kts | 171° |
| 2026-05-06 21:29 | 39.69349 | 137.56294 | 32916 ft | 491 kts | 171° |
| 2026-05-06 21:30 | 39.62783 | 137.58942 | 32923 ft | 491 kts | 171° |
| 2026-05-06 21:30 | 39.56268 | 137.61548 | 32921 ft | 491 kts | 170° |
| 2026-05-06 21:31 | 39.49780 | 137.64180 | 32938 ft | 491 kts | 170° |
| 2026-05-06 21:31 | 39.43215 | 137.66795 | 32930 ft | 491 kts | 171° |
| 2026-05-06 21:32 | 39.36690 | 137.69444 | 32934 ft | 493 kts | 171° |
| 2026-05-06 21:32 | 39.26884 | 137.73433 | 32937 ft | 498 kts | 167° |
| 2026-05-06 21:33 | 39.20693 | 137.77660 | 32951 ft | 515 kts | 150° |
| 2026-05-06 21:33 | 39.15179 | 137.83635 | 32966 ft | 522 kts | 144° |
| 2026-05-06 21:34 | 39.09752 | 137.89835 | 32953 ft | 520 kts | 146° |
| 2026-05-06 21:34 | 39.04227 | 137.95869 | 32967 ft | 520 kts | 146° |
| 2026-05-06 21:35 | 38.98721 | 138.01825 | 32970 ft | 519 kts | 146° |
| 2026-05-06 21:35 | 38.93235 | 138.07803 | 32977 ft | 519 kts | 146° |
| 2026-05-06 21:36 | 38.87635 | 138.13730 | 32986 ft | 519 kts | 146° |
| 2026-05-06 21:36 | 38.82108 | 138.19710 | 32987 ft | 520 kts | 145° |
| 2026-05-06 21:37 | 38.76619 | 138.25664 | 32994 ft | 519 kts | 146° |
| 2026-05-06 21:37 | 38.71115 | 138.31630 | 32994 ft | 519 kts | 145° |
| 2026-05-06 21:38 | 38.65607 | 138.37613 | 32991 ft | 518 kts | 146° |
| 2026-05-06 21:38 | 38.60050 | 138.43442 | 32991 ft | 518 kts | 146° |
| 2026-05-06 21:39 | 38.54567 | 138.49335 | 32998 ft | 518 kts | 145° |
| 2026-05-06 21:39 | 38.49064 | 138.55272 | 33002 ft | 518 kts | 145° |
| 2026-05-06 21:40 | 38.43525 | 138.61116 | 33003 ft | 518 kts | 146° |
| 2026-05-06 21:40 | 38.37908 | 138.66921 | 32994 ft | 518 kts | 146° |
| 2026-05-06 21:41 | 38.32346 | 138.72821 | 32999 ft | 518 kts | 146° |
| 2026-05-06 21:41 | 38.26807 | 138.78645 | 33007 ft | 518 kts | 146° |
| 2026-05-06 21:42 | 38.21267 | 138.84511 | 33002 ft | 518 kts | 145° |
| 2026-05-06 21:42 | 38.15705 | 138.90385 | 33003 ft | 517 kts | 145° |
| 2026-05-06 21:43 | 38.10206 | 138.96187 | 33008 ft | 518 kts | 145° |
| 2026-05-06 21:43 | 38.04643 | 139.02039 | 33018 ft | 519 kts | 144° |
| 2026-05-06 21:44 | 37.99155 | 139.07959 | 33015 ft | 519 kts | 143° |
| 2026-05-06 21:44 | 37.94106 | 139.14511 | 33023 ft | 526 kts | 132° |
| 2026-05-06 21:45 | 37.89815 | 139.22041 | 33030 ft | 528 kts | 128° |
| 2026-05-06 21:45 | 37.85622 | 139.29674 | 33029 ft | 527 kts | 128° |
| 2026-05-06 21:46 | 37.81353 | 139.37225 | 33031 ft | 527 kts | 128° |
| 2026-05-06 21:46 | 37.77066 | 139.44777 | 33032 ft | 527 kts | 128° |
| 2026-05-06 21:47 | 37.72815 | 139.52321 | 33046 ft | 527 kts | 128° |
| 2026-05-06 21:47 | 37.68592 | 139.59813 | 33045 ft | 526 kts | 128° |
| 2026-05-06 21:48 | 37.64272 | 139.67288 | 33045 ft | 526 kts | 129° |
| 2026-05-06 21:48 | 37.59984 | 139.74718 | 33042 ft | 524 kts | 128° |
| 2026-05-06 21:49 | 37.55722 | 139.82178 | 33039 ft | 524 kts | 128° |
| 2026-05-06 21:49 | 37.51448 | 139.89604 | 33046 ft | 524 kts | 128° |
| 2026-05-06 21:50 | 37.47210 | 139.97051 | 33045 ft | 524 kts | 128° |
| 2026-05-06 21:50 | 37.42959 | 140.04451 | 33041 ft | 523 kts | 128° |
| 2026-05-06 21:51 | 37.38713 | 140.11920 | 33037 ft | 523 kts | 128° |
| 2026-05-06 21:51 | 37.34476 | 140.19313 | 33032 ft | 523 kts | 128° |
| 2026-05-06 21:52 | 37.30154 | 140.26714 | 33031 ft | 522 kts | 128° |
| 2026-05-06 21:52 | 37.25898 | 140.34049 | 33025 ft | 521 kts | 128° |
| 2026-05-06 21:53 | 37.21645 | 140.41399 | 33026 ft | 521 kts | 128° |
| 2026-05-06 21:53 | 37.17370 | 140.48758 | 33024 ft | 520 kts | 127° |
| 2026-05-06 21:54 | 37.13113 | 140.56010 | 33023 ft | 519 kts | 127° |
| 2026-05-06 21:54 | 37.08845 | 140.63324 | 33021 ft | 519 kts | 128° |
| 2026-05-06 21:55 | 37.04278 | 140.70302 | 32999 ft | 514 kts | 140° |
| 2026-05-06 21:55 | 36.98454 | 140.75182 | 33023 ft | 504 kts | 160° |
| 2026-05-06 21:56 | 36.91758 | 140.77324 | 33031 ft | 493 kts | 180° |
| 2026-05-06 21:56 | 36.85041 | 140.76524 | 33021 ft | 481 kts | 201° |
| 2026-05-06 21:57 | 36.79039 | 140.73094 | 33016 ft | 474 kts | 213° |
| 2026-05-06 21:57 | 36.73026 | 140.69575 | 32998 ft | 481 kts | 205° |
| 2026-05-06 21:58 | 36.66615 | 140.66978 | 32998 ft | 483 kts | 201° |
| 2026-05-06 21:58 | 36.60214 | 140.64558 | 33000 ft | 482 kts | 201° |
| 2026-05-06 21:59 | 36.53756 | 140.62070 | 33002 ft | 483 kts | 201° |
| 2026-05-06 21:59 | 36.47371 | 140.59637 | 33002 ft | 483 kts | 200° |
| 2026-05-06 22:00 | 36.40873 | 140.57321 | 32977 ft | 487 kts | 194° |
| 2026-05-06 22:00 | 36.34038 | 140.57100 | 33028 ft | 496 kts | 174° |
| 2026-05-06 22:01 | 36.27484 | 140.59747 | 33034 ft | 503 kts | 154° |
| 2026-05-06 22:01 | 36.21903 | 140.64978 | 32675 ft | 511 kts | 135° |
| 2026-05-06 22:02 | 36.19574 | 140.68306 | 31934 ft | 513 kts | 130° |
| 2026-05-06 22:02 | 36.17379 | 140.71823 | 31187 ft | 512 kts | 128° |
| 2026-05-06 22:02 | 36.15268 | 140.75316 | 30445 ft | 512 kts | 128° |
| 2026-05-06 22:02 | 36.13124 | 140.78845 | 29690 ft | 511 kts | 129° |
| 2026-05-06 22:03 | 36.10854 | 140.82199 | 28952 ft | 508 kts | 134° |
| 2026-05-06 22:03 | 36.08451 | 140.85396 | 28174 ft | 507 kts | 136° |
| 2026-05-06 22:03 | 36.06016 | 140.88509 | 27392 ft | 507 kts | 136° |
| 2026-05-06 22:03 | 36.03578 | 140.91626 | 26622 ft | 509 kts | 136° |
| 2026-05-06 22:04 | 36.01133 | 140.94810 | 25829 ft | 512 kts | 135° |
| 2026-05-06 22:04 | 35.98783 | 140.98084 | 25018 ft | 513 kts | 129° |
| 2026-05-06 22:04 | 35.96880 | 141.01788 | 24275 ft | 514 kts | 118° |
| 2026-05-06 22:04 | 35.95584 | 141.05904 | 23529 ft | 515 kts | 107° |
| 2026-05-06 22:05 | 35.94983 | 141.10228 | 22770 ft | 514 kts | 95° |
| 2026-05-06 22:05 | 35.95041 | 141.14565 | 22055 ft | 512 kts | 86° |
| 2026-05-06 22:05 | 35.95365 | 141.18907 | 21311 ft | 510 kts | 85° |
| 2026-05-06 22:05 | 35.95557 | 141.23270 | 20538 ft | 504 kts | 94° |
| 2026-05-06 22:06 | 35.95068 | 141.27426 | 19835 ft | 488 kts | 107° |
| 2026-05-06 22:06 | 35.93840 | 141.31238 | 19305 ft | 473 kts | 122° |
| 2026-05-06 22:06 | 35.91928 | 141.34497 | 18967 ft | 466 kts | 137° |
| 2026-05-06 22:06 | 35.89475 | 141.37071 | 18509 ft | 462 kts | 151° |
| 2026-05-06 22:07 | 35.86643 | 141.38815 | 17996 ft | 454 kts | 165° |
| 2026-05-06 22:07 | 35.83615 | 141.39648 | 17427 ft | 441 kts | 179° |
| 2026-05-06 22:07 | 35.80607 | 141.39519 | 16865 ft | 428 kts | 194° |
| 2026-05-06 22:07 | 35.77826 | 141.38452 | 16369 ft | 414 kts | 209° |
| 2026-05-06 22:08 | 35.75458 | 141.36530 | 15945 ft | 405 kts | 224° |
| 2026-05-06 22:08 | 35.73660 | 141.33896 | 15503 ft | 398 kts | 240° |
| 2026-05-06 22:08 | 35.72484 | 141.30844 | 15101 ft | 396 kts | 250° |
| 2026-05-06 22:08 | 35.71682 | 141.27612 | 14809 ft | 395 kts | 256° |
| 2026-05-06 22:09 | 35.71165 | 141.24329 | 14620 ft | 397 kts | 261° |
| 2026-05-06 22:09 | 35.70936 | 141.20932 | 14282 ft | 397 kts | 267° |
| 2026-05-06 22:09 | 35.71030 | 141.17567 | 13992 ft | 397 kts | 274° |
| 2026-05-06 22:09 | 35.71468 | 141.14192 | 13717 ft | 396 kts | 281° |
| 2026-05-06 22:10 | 35.72255 | 141.10977 | 13474 ft | 396 kts | 288° |
| 2026-05-06 22:10 | 35.73340 | 141.07849 | 13232 ft | 397 kts | 291° |
| 2026-05-06 22:10 | 35.74574 | 141.04854 | 12974 ft | 398 kts | 297° |
| 2026-05-06 22:10 | 35.75995 | 141.01938 | 12733 ft | 397 kts | 298° |
| 2026-05-06 22:11 | 35.77428 | 140.99020 | 12389 ft | 397 kts | 299° |
| 2026-05-06 22:11 | 35.78905 | 140.96141 | 12032 ft | 395 kts | 299° |
| 2026-05-06 22:11 | 35.80340 | 140.93303 | 11695 ft | 389 kts | 299° |
| 2026-05-06 22:11 | 35.81711 | 140.90497 | 11355 ft | 381 kts | 298° |
| 2026-05-06 22:12 | 35.83032 | 140.87726 | 10966 ft | 365 kts | 298° |
| 2026-05-06 22:12 | 35.84280 | 140.85075 | 10707 ft | 347 kts | 297° |
| 2026-05-06 22:12 | 35.85440 | 140.82581 | 10504 ft | 331 kts | 297° |
| 2026-05-06 22:12 | 35.86547 | 140.80191 | 10334 ft | 315 kts | 297° |
| 2026-05-06 22:13 | 35.87619 | 140.77885 | 10179 ft | 299 kts | 297° |
| 2026-05-06 22:13 | 35.88632 | 140.75716 | 10059 ft | 286 kts | 297° |
| 2026-05-06 22:13 | 35.89605 | 140.73625 | 10019 ft | 280 kts | 297° |
| 2026-05-06 22:13 | 35.90566 | 140.71549 | 9910 ft | 278 kts | 297° |
| 2026-05-06 22:14 | 35.91527 | 140.69473 | 9807 ft | 277 kts | 297° |
| 2026-05-06 22:14 | 35.92488 | 140.67416 | 9680 ft | 277 kts | 297° |
| 2026-05-06 22:14 | 35.93451 | 140.65358 | 9522 ft | 277 kts | 297° |
| 2026-05-06 22:14 | 35.94404 | 140.63318 | 9333 ft | 276 kts | 297° |
| 2026-05-06 22:15 | 35.95351 | 140.61276 | 9206 ft | 275 kts | 297° |
| 2026-05-06 22:15 | 35.96309 | 140.59210 | 9033 ft | 275 kts | 297° |
| 2026-05-06 22:15 | 35.97255 | 140.57179 | 8859 ft | 275 kts | 297° |
| 2026-05-06 22:15 | 35.98253 | 140.55148 | 8672 ft | 275 kts | 300° |
| 2026-05-06 22:16 | 35.99335 | 140.53191 | 8433 ft | 274 kts | 303° |
| 2026-05-06 22:16 | 36.00454 | 140.51326 | 8202 ft | 273 kts | 304° |
| 2026-05-06 22:16 | 36.01603 | 140.49469 | 7970 ft | 271 kts | 304° |
| 2026-05-06 22:16 | 36.02738 | 140.47620 | 7736 ft | 266 kts | 304° |
| 2026-05-06 22:17 | 36.03842 | 140.45796 | 7515 ft | 261 kts | 304° |
| 2026-05-06 22:17 | 36.04906 | 140.44026 | 7305 ft | 255 kts | 303° |
| 2026-05-06 22:17 | 36.05946 | 140.42294 | 7102 ft | 246 kts | 303° |
| 2026-05-06 22:17 | 36.06947 | 140.40628 | 6931 ft | 236 kts | 303° |
| 2026-05-06 22:18 | 36.07916 | 140.39012 | 6799 ft | 233 kts | 303° |
| 2026-05-06 22:18 | 36.08897 | 140.37376 | 6636 ft | 241 kts | 303° |
| 2026-05-06 22:18 | 36.09902 | 140.35707 | 6402 ft | 239 kts | 303° |
| 2026-05-06 22:18 | 36.10898 | 140.34064 | 6290 ft | 234 kts | 303° |
| 2026-05-06 22:19 | 36.11750 | 140.32369 | 6273 ft | 234 kts | 290° |
| 2026-05-06 22:19 | 36.12148 | 140.30441 | 6064 ft | 227 kts | 273° |
| 2026-05-06 22:19 | 36.12194 | 140.28531 | 5842 ft | 216 kts | 266° |
| 2026-05-06 22:19 | 36.12116 | 140.26727 | 5679 ft | 207 kts | 263° |
| 2026-05-06 22:20 | 36.12014 | 140.24939 | 5580 ft | 212 kts | 264° |
| 2026-05-06 22:20 | 36.11936 | 140.23090 | 5396 ft | 219 kts | 265° |
| 2026-05-06 22:20 | 36.11900 | 140.21178 | 5197 ft | 220 kts | 267° |
| 2026-05-06 22:20 | 36.11631 | 140.19350 | 5049 ft | 210 kts | 244° |
| 2026-05-06 22:21 | 36.10762 | 140.17986 | 4930 ft | 202 kts | 214° |
| 2026-05-06 22:21 | 36.09461 | 140.17415 | 4786 ft | 199 kts | 185° |
| 2026-05-06 22:21 | 36.08062 | 140.17403 | 4588 ft | 201 kts | 179° |
| 2026-05-06 22:21 | 36.06672 | 140.17519 | 4411 ft | 200 kts | 178° |
| 2026-05-06 22:22 | 36.05281 | 140.17674 | 4237 ft | 201 kts | 174° |
| 2026-05-06 22:22 | 36.03923 | 140.18074 | 4324 ft | 202 kts | 164° |
| 2026-05-06 22:22 | 36.02604 | 140.18741 | 4134 ft | 205 kts | 157° |
| 2026-05-06 22:22 | 36.01368 | 140.19554 | 3903 ft | 192 kts | 153° |
| 2026-05-06 22:23 | 36.00274 | 140.20360 | 3915 ft | 179 kts | 152° |
| 2026-05-06 22:23 | 35.99210 | 140.21161 | 4013 ft | 176 kts | 152° |
| 2026-05-06 22:23 | 35.98159 | 140.21933 | 4040 ft | 177 kts | 153° |
| 2026-05-06 22:23 | 35.97097 | 140.22694 | 4020 ft | 176 kts | 153° |
| 2026-05-06 22:24 | 35.96033 | 140.23451 | 4006 ft | 175 kts | 153° |
| 2026-05-06 22:24 | 35.94985 | 140.24194 | 3979 ft | 174 kts | 153° |
| 2026-05-06 22:24 | 35.93922 | 140.24950 | 3768 ft | 175 kts | 154° |
| 2026-05-06 22:24 | 35.92877 | 140.25694 | 3547 ft | 172 kts | 153° |
| 2026-05-06 22:25 | 35.91841 | 140.26437 | 3330 ft | 174 kts | 153° |
| 2026-05-06 22:25 | 35.90796 | 140.27191 | 3091 ft | 170 kts | 153° |
| 2026-05-06 22:25 | 35.89774 | 140.27927 | 2883 ft | 170 kts | 153° |
| 2026-05-06 22:25 | 35.88763 | 140.28654 | 2653 ft | 168 kts | 153° |
| 2026-05-06 22:26 | 35.87748 | 140.29387 | 2431 ft | 167 kts | 152° |
| 2026-05-06 22:26 | 35.86760 | 140.30104 | 2209 ft | 165 kts | 152° |
| 2026-05-06 22:26 | 35.85759 | 140.30821 | 1999 ft | 165 kts | 152° |
| 2026-05-06 22:26 | 35.84775 | 140.31528 | 1786 ft | 165 kts | 152° |
| 2026-05-06 22:27 | 35.83766 | 140.32256 | 1563 ft | 166 kts | 151° |
| 2026-05-06 22:27 | 35.82778 | 140.32964 | 1354 ft | 166 kts | 151° |
| 2026-05-06 22:27 | 35.81766 | 140.33693 | 1116 ft | 167 kts | 151° |
| 2026-05-06 22:27 | 35.80763 | 140.34415 | 912 ft | 166 kts | 150° |
| 2026-05-06 22:28 | 35.79768 | 140.35136 | 680 ft | 165 kts | 150° |
| 2026-05-06 22:28 | 35.78782 | 140.35854 | 486 ft | 166 kts | 149° |
| 2026-05-06 22:28 | 35.77778 | 140.36594 | 252 ft | 164 kts | 148° |
| 2026-05-06 22:28 | 35.76813 | 140.37293 | 133 ft | 152 kts | 149° |
| 2026-05-06 22:29 | 35.76065 | 140.37822 | 140 ft | 83 kts | 149° |
| 2026-05-06 22:29 | 35.75626 | 140.38139 | 141 ft | 62 kts | 147° |
| 2026-05-06 22:29 | 35.75373 | 140.38408 | 143 ft | 24 kts | 137° |
| 2026-05-06 22:29 | 35.75263 | 140.38570 | 142 ft | 25 kts | 126° |
| 2026-05-06 22:30 | 35.75173 | 140.38716 | 139 ft | 15 kts | 136° |
| 2026-05-06 22:30 | 35.75081 | 140.38791 | 139 ft | 16 kts | 148° |
| 2026-05-06 22:30 | 35.74981 | 140.38861 | 140 ft | 17 kts | 150° |
| 2026-05-06 22:30 | 35.74875 | 140.38937 | 140 ft | 18 kts | 149° |
| 2026-05-06 22:31 | 35.74757 | 140.39023 | 139 ft | 21 kts | 149° |
| 2026-05-06 22:31 | 35.74646 | 140.39102 | 136 ft | 14 kts | 149° |
| 2026-05-06 22:31 | 35.74609 | 140.39174 | 136 ft | 10 kts | 77° |
| 2026-05-06 22:31 | 35.74641 | 140.39255 | 138 ft | 10 kts | 60° |
| 2026-05-06 22:32 | 35.74675 | 140.39327 | 140 ft | 9 kts | 59° |
| 2026-05-06 22:32 | 35.74707 | 140.39392 | 142 ft | 8 kts | 59° |
| 2026-05-06 22:32 | 35.74737 | 140.39456 | 144 ft | 8 kts | 59° |
| 2026-05-06 22:32 | 35.74766 | 140.39510 | 146 ft | 6 kts | 43° |
| 2026-05-06 22:33 | 35.74806 | 140.39517 | 146 ft | 6 kts | 346° |
| 2026-05-06 22:33 | 35.74852 | 140.39493 | 147 ft | 8 kts | 333° |
| 2026-05-06 22:33 | 35.74903 | 140.39456 | 146 ft | 9 kts | 329° |
| 2026-05-06 22:33 | 35.74953 | 140.39421 | 146 ft | 5 kts | 329° |
| 2026-05-06 22:34 | 35.74969 | 140.39384 | 145 ft | 6 kts | 254° |
| 2026-05-06 22:34 | 35.74946 | 140.39325 | 143 ft | 5 kts | 240° |
| 2026-05-06 22:34 | 35.74938 | 140.39310 | 143 ft | 0 kts | 239° |